Extreme weather reports worldwide

Lowest temperatures

Station
 
Location
 
Name
 
Wind
Knots
Gust
Knots
Vis
SM
Temp/Dew
C
Baro
inHg
METAR
 
LIMH IT Pian Rosà 12 6.21 -5/-6 30.50 LIMH 171855Z 12012KT 9999 FEW000TCU M05/M06 Q1033 RMK BKN SCT100 MON CLD SCT VAL CLD SCT VIS MIN 9999
OOM YCOM Cooma, AU Cooma Snowy Mountains Airport 0 6.21 -3/-5 29.73 YCOM 171900Z AUTO 00000KT 9999 // NCD M03/M05 Q1007
CWRH 20 32 -3/-3 29.65 CWRH 171900Z AUTO 17020G32KT 120V220 ////SM NCD M03/M03 A2965
CWND -1/-1 CWND M01/M01 RMK 7019 T10101014
TNM SCRM Isla Rey Jorge, AQ Teniente Rodolfo Marsh Martin Base 12 4.35 -1/-2 29.47 SCRM 171900Z 27012KT 7000 VCFG SCT009 OVC020 M01/M02 Q0998 NOSIG

Station
 
Location
 
Name
 
Wind
Knots
Gust
Knots
Vis
SM
Temp/Dew
C
Baro
inHg
METAR
 
CWOB 27 -1/-1 29.65 CWOB 171900Z AUTO 20027KT ////SM NCD M01/M01 A2965
KIKG Kingsville, US Kleberg County Airport 6 10 0/ 29.95 KIKG 171935Z AUTO 12006KT 10SM BKN044 BKN055 OVC070 00/ A2995 RMK AO2 T0000
CZCP 14 19 0/-1 30.09 CZCP 171900Z AUTO 30014G19KT ////SM //// OVC003 M00/M01 A3009
YSY CYSY Sachs Harbour, CA Sachs Harbour (David Nasogaluak Jr. Saaryuaq) Airport 17 5 0/0 30.03 CYSY 171900Z 30017KT 5SM -DZ BR BKN006 00/00 A3003 RMK SC7 SLP180
CWUW 18 0/0 29.52 CWUW 171900Z AUTO 14018KT ////SM BKN002 M00/M00 A2952
CWLX 15 20 0/0 29.49 CWLX 171900Z AUTO 17015G20KT ////SM OVC002 00/M00 A2949
CBAR 9 0/-1 30.17 CBAR 171900Z AUTO 32009KT ////SM OVC003 00/M01 A3017
YTE CYTE Cape Dorset, CA Cape Dorset Airport 9 7 1/1 29.49 CYTE 171948Z AUTO 25009KT 7SM -SN BKN007 OVC012 01/01 A2949 RMK SLP993
PAAD Deadhorse, US Point Thomson Airstrip 17 5 1/0 30.09 PAAD 171935Z AUTO 06017KT 5SM OVC003 02/01 A3009 RMK AO2 T00190007 PWINO
GXQ SCCY Coyhaique, CL Teniente Vidal Airport 3 6.21 1/-4 30.27 SCCY 171900Z 24003KT 160V310 CAVOK 01/M04 Q1025
YYQ CYYQ Churchill, CA Churchill Airport 26 31 3 1/0 29.57 CYYQ 171900Z 02026G31KT 3SM BR OVC002 01/00 A2957 RMK SF8 VIS VRB 2-4 SLP018
YVM CYVM Qikiqtarjuaq, CA Qikiqtarjuaq Airport 5 15 1/1 29.65 CYVM 171900Z 01005KT 15SM BKN060 OVC110 01/01 A2965 RMK SC5AC3 SLP042
YIK CYIK Ivujivik, CA Ivujivik Airport 5 0.38 1/0 29.59 CYIK 171900Z 28005KT 3/8SM -DZ FG VV002 01/00 A2959 RMK FG8 SLP024
CXSE 14 1/0 CXSE 171900Z AUTO 30014KT 01/M00 RMK AO1 SOG 28 5001 PK WND 29021/1800 SLP031 T00121004
CXAT 15 1/0 CXAT 171900Z AUTO 31015KT 02/M00 RMK AO1 PK WND 31018/1851 SLP018 T00161002 58013
CWFD 15 1/-1 29.56 CWFD 171900Z AUTO 22015KT ////SM OVC065 01/M01 A2956
SHH PASH Shishmaref, US Shishmaref Airport 4 2 2/2 30.13 PASH 171956Z AUTO 28004KT 2SM BR CLR 02/02 A3013 RMK AO2 SLP202 T00220022 FZRANO
PHO PAPO Point Hope, US Point Hope Airport 8 0.25 2/1 30.10 PAPO 171956Z AUTO 16008KT 1/4SM FG OVC002 02/02 A3010 RMK AO2 SLP192 T00220017 FZRANO
YUX CYUX Hall Beach, CA Hall Beach Airport 11 2 2/1 29.51 CYUX 171947Z 35011KT 2SM BR OVC003 02/01 A2951 RMK ST8 SLP997
PVS UHMD Chukotka, RU Provideniya Bay Airport 8 0.62 2/1 30.09 UHMD 171930Z 18004MPS 1000 DZ BR VV003 02/01 Q1019 RMK QBB110 MT OBSC QFE763/1018
YGT CYGT Igloolik, CA Igloolik Airport 7 15 2/2 29.51 CYGT 171922Z 36007KT 15SM BKN008 OVC011 02/02 A2951 RMK SC6SC2 SLP998
KGY YKRY AU Kingaroy Airport 0 6.21 2/1 29.97 YKRY 171900Z AUTO 00000KT 9999 // NCD 02/01 Q1015
PNT SCNT Puerto Natales, CL Tte. Julio Gallardo Airport 3 6.21 2/0 30.12 SCNT 171900Z 20003KT 170V230 9999 FEW001 02/M00 Q1020
BRC SAZS San Carlos de Bariloche, AR San Carlos De Bariloche Airport 7 6.21 2/-3 30.21 SAZS 171900Z 09007KT 9999 OVC027 02/M03 Q1023
YRB CYRB Resolute Bay, CA Resolute Bay Airport 22 27 25 2/0 29.61 CYRB 171900Z 12022G27KT 25SM BKN029 02/M00 A2961 RMK SC7 SLP034
YQC CYHA Quaqtaq, CA Quaqtaq Airport 12 15 2/0 29.62 CYHA 171900Z 16012KT 15SM BKN090 02/M00 A2962 RMK AS7 SLP036
YFB CYFB Iqaluit, CA Iqaluit Airport 16 30 2/0 29.64 CYFB 171900Z 16016KT 30SM FEW004 BKN180 02/M00 A2964 RMK SF1CI6 SLP042
CXRB 20 2/0 CXRB 171900Z AUTO 12020KT 02/00 RMK AO1 PK WND 12024/1858 SLP033 T00200000 56007
CWRX 7 2/1 29.47 CWRX 171900Z AUTO 31007KT 300V360 ////SM OVC003 02/01 A2947
CLAB 3 2/2 29.54 CLAB 171900Z AUTO 34003KT 270V050 ////SM BKN002 02/02 A2954
SVA PASA Savoonga, US Savoonga Airport 10 10 3/2 30.12 PASA 171956Z AUTO 05010KT 10SM CLR 03/03 A3012 RMK AO2 SLP198 T00330028
WAA PAIW Wales, US Wales Airport 4 0.25 3/3 30.13 PAIW 171956Z AUTO 27004KT 1/4SM FG OVC002 04/04 A3013 RMK AO2 SLP204 T00390039
WTB YBWW Toowoomba, AU Toowoomba Wellcamp Airport 3 6.21 3/1 29.94 YBWW 171930Z AUTO 36003KT 9999 // NCD 03/01 Q1014 RF00.0////./
OKY YBOK AU Oakey Airport 4 6.21 3/2 29.94 YBOK 171900Z AUTO 35004KT 9999 // NCD 03/02 Q1014
BBA SCBA Balmaceda, CL Balmaceda Airport 3 6.21 3/-6 30.27 SCBA 171900Z 05003KT 360V110 CAVOK 03/M06 Q1025
USH SAWH Ushuahia, AR Malvinas Argentinas Airport 3 6.21 3/0 29.97 SAWH 171900Z 04003KT CAVOK 03/M00 Q1015
MDZ SAME Mendoza, AR El Plumerillo Airport 3 6.21 3/0 30.21 SAME 171900Z 09003KT 9999 SCT015 OVC020 03/00 Q1023
YPJ CYLA Aupaluk, CA Aupaluk Airport 5 15 3/-1 29.64 CYLA 171900Z 16005KT 090V200 15SM FEW025 BKN120 03/M01 A2964 RMK SC2AC5 SLP041
YKG CYAS Kangirsuk, CA Kangirsuk Airport 13 15 3/-1 29.61 CYAS 171900Z 11013KT 15SM SCT014 OVC140 03/M01 A2961 RMK SC4AS4 SLP037
CWXR 18 3/2 30.03 CWXR 171900Z AUTO 31018KT ////SM OVC003 03/02 A3003
CWHO 3/3 CWHO 171900Z AUTO 04/03 RMK AO1 SLP057 T00370034 56001
LYR ENSB Longyearbyen, NO Svalbard Airport, Longyear 7 6.21 4/0 29.62 ENSB 171950Z 27007KT 9999 FEW020 04/M00 Q1003 RMK WIND 1400FT 29006KT
KUS BGKK Kulusuk, GL Kulusuk Airport 7 4/-1 29.94 BGKK 171950Z AUTO 24007KT 9999NDV NCD 04/M01 Q1014
YSK CYSK Sanikiluaq, CA Sanikiluaq Airport 20 10 4/2 29.38 CYSK 171947Z 10020KT 10SM BKN048 04/02 A2938 RMK SC7 PRESFR SLP954
KGI YPKG Kalgoorlie, AU Kalgoorlie Boulder Airport 5 6.21 4/2 30.41 YPKG 171930Z AUTO 15005KT 9999 // NCD 04/02 Q1030 RF00.0/000.0